Aviation Digital Data Service (ADDS)

Output produced by METARs form (0100 UTC 23 March 2019)
found at http://www.aviationweather.gov/metar/data/
 
Forecast for: SLCB (COCHABAMBA/JORGE, BO)
Text: TAF SLCB 222250Z 2300/2324 14010KT 9999 FEW030 TX30/2319Z TN12/2310Z
Forecast period: 0000 to 0300 UTC 23 March 2019
Forecast type: FROM: standard forecast or significant change
Winds: from the SE (140 degrees) at 12 MPH (10 knots; 5.1 m/s)
Visibility: 6 or more miles 10+ km)
Ceiling: at least 12,000 feet AGL
Clouds: few clouds at 3000 feet AGL
Weather: no significant weather forecast for this period
Text: BECMG 2303/2305 00000KT SCT027 BKN070
Forecast period: 0300 UTC 23 March 2019 to 0000 UTC 24 March 2019
Forecast type: BECOMING: Conditions expected to become as follows by 0500 UTC 23 March 2019
Winds: calm
Visibility: 6 or more miles 10+ km)
Ceiling: 7000 feet AGL
Clouds: scattered clouds at 2700 feet AGL
broken clouds at 7000 feet AGL
Weather: no significant weather forecast for this period
Text: BECMG 2314/2316
Forecast period: 1800 to 2000 UTC 23 March 2019
Forecast type: TEMPORARY: The following changes expected for less than half the time period
Visibility: missing
Ceiling: at least 12,000 feet AGL
Clouds: few clouds at 3600 feet AGL
Weather: VCTS  (thunderstorm in vicinity)